Time;durP1;ratioP1;P1;durP2;ratioP2;P2;SDS_P1;SDS_P2;PMS_P1;PMS_P2;Temp;Humidity;BMP_temperature;BMP_pressure;BME280_temperature;BME280_humidity;BME280_pressure;Samples;Min_cycle;Max_cycle;Signal;HPM_P1;HPM_P2
2023/05/21 00:00:36;;;;;;;20.00;15.87;;;13.70;99.90;;;;;;475627;245;29274;-81
2023/05/21 00:02:38;;;;;;;24.40;18.23;;;13.70;99.90;;;;;;475659;248;28916;-82
2023/05/21 00:04:42;;;;;;;26.00;19.00;;;13.60;99.90;;;;;;475723;248;28739;-82
2023/05/21 00:06:40;;;;;;;24.97;19.83;;;13.60;99.90;;;;;;475580;250;28803;-82
2023/05/21 00:08:41;;;;;;;24.60;19.00;;;13.60;99.90;;;;;;475632;248;28646;-83
2023/05/21 00:10:43;;;;;;;27.60;18.73;;;13.60;99.90;;;;;;475711;248;28830;-84
2023/05/21 00:12:44;;;;;;;24.03;18.77;;;13.60;99.90;;;;;;475654;248;29315;-82
2023/05/21 00:14:45;;;;;;;25.93;19.27;;;13.60;99.90;;;;;;475599;247;29394;-82
2023/05/21 00:16:46;;;;;;;22.30;16.90;;;13.60;99.90;;;;;;475696;248;28703;-82
2023/05/21 00:18:53;;;;;;;24.50;19.83;;;13.60;99.90;;;;;;475633;248;28434;-82
2023/05/21 00:20:49;;;;;;;27.07;20.00;;;13.60;99.90;;;;;;475388;250;28736;-82
2023/05/21 00:22:50;;;;;;;21.20;16.30;;;13.60;99.90;;;;;;475573;248;28906;-83
2023/05/21 00:24:51;;;;;;;27.53;19.80;;;13.60;99.90;;;;;;475626;248;28711;-83
2023/05/21 00:26:53;;;;;;;22.83;16.83;;;13.60;99.90;;;;;;475667;248;28749;-81
2023/05/21 00:28:54;;;;;;;25.27;17.97;;;13.60;99.90;;;;;;475627;248;29675;-82
2023/05/21 00:30:55;;;;;;;29.30;20.87;;;13.60;99.90;;;;;;475647;249;28807;-83
2023/05/21 00:32:57;;;;;;;26.80;19.03;;;13.60;99.90;;;;;;475708;248;28767;-81
2023/05/21 00:34:58;;;;;;;25.70;19.23;;;13.60;99.90;;;;;;475697;246;28751;-82
2023/05/21 00:37:01;;;;;;;28.43;19.40;;;13.60;99.90;;;;;;475734;248;28797;-82
2023/05/21 00:39:01;;;;;;;32.50;20.80;;;13.60;99.90;;;;;;475681;250;28385;-81
2023/05/21 00:41:01;;;;;;;22.33;17.10;;;13.60;99.90;;;;;;475783;248;28834;-82
2023/05/21 00:43:03;;;;;;;26.60;18.90;;;13.50;99.90;;;;;;475746;248;29258;-81
2023/05/21 00:45:04;;;;;;;28.07;20.03;;;13.50;99.90;;;;;;475648;248;28711;-82
2023/05/21 00:47:06;;;;;;;30.97;20.80;;;13.50;99.90;;;;;;475678;251;28747;-82
2023/05/21 00:49:06;;;;;;;24.37;17.70;;;13.60;99.90;;;;;;475664;248;28810;-81
2023/05/21 00:51:08;;;;;;;25.27;19.40;;;13.60;99.90;;;;;;475701;248;28724;-85
2023/05/21 00:53:09;;;;;;;22.07;17.47;;;13.60;99.90;;;;;;475766;248;28743;-82
2023/05/21 00:55:10;;;;;;;24.57;17.97;;;13.50;99.90;;;;;;475644;248;28731;-82
2023/05/21 00:57:12;;;;;;;28.67;18.90;;;13.60;99.90;;;;;;475688;248;29221;-86
2023/05/21 00:59:13;;;;;;;20.63;16.60;;;13.60;99.90;;;;;;475683;248;28816;-82
2023/05/21 01:01:14;;;;;;;26.07;18.47;;;13.50;99.90;;;;;;475707;248;28415;-82
2023/05/21 01:03:15;;;;;;;26.43;20.10;;;13.50;99.90;;;;;;475763;248;28787;-82
2023/05/21 01:05:17;;;;;;;32.07;19.37;;;13.50;99.90;;;;;;475690;247;28312;-84
2023/05/21 01:07:18;;;;;;;27.10;20.23;;;13.50;99.90;;;;;;475727;250;28769;-83
2023/05/21 01:09:19;;;;;;;28.13;20.30;;;13.50;99.90;;;;;;475702;245;28444;-82
2023/05/21 01:11:20;;;;;;;26.63;18.73;;;13.50;99.90;;;;;;475737;248;29300;-83
2023/05/21 01:13:22;;;;;;;27.80;19.87;;;13.50;99.90;;;;;;475748;248;29305;-81
2023/05/21 01:15:23;;;;;;;26.87;18.80;;;13.50;99.90;;;;;;475740;246;28426;-79
2023/05/21 01:17:24;;;;;;;34.00;21.23;;;13.50;99.90;;;;;;475737;248;28413;-83
2023/05/21 01:19:25;;;;;;;22.30;17.93;;;13.50;99.90;;;;;;475684;245;28718;-83
2023/05/21 01:21:27;;;;;;;27.03;20.90;;;13.50;99.90;;;;;;475699;248;28435;-83
2023/05/21 01:23:28;;;;;;;29.40;19.57;;;13.50;99.90;;;;;;475648;248;28795;-82
2023/05/21 01:25:29;;;;;;;27.70;19.87;;;13.50;99.90;;;;;;475716;248;29690;-81
2023/05/21 01:27:30;;;;;;;30.93;19.60;;;13.50;99.90;;;;;;475779;248;29055;-83
2023/05/21 01:29:32;;;;;;;27.00;19.80;;;13.50;99.90;;;;;;475754;248;28270;-82
2023/05/21 01:31:33;;;;;;;28.90;19.47;;;13.50;99.90;;;;;;475786;248;28802;-84
2023/05/21 01:33:34;;;;;;;27.23;19.17;;;13.50;99.90;;;;;;475715;248;28274;-82
2023/05/21 01:35:35;;;;;;;28.87;19.80;;;13.40;99.90;;;;;;475703;248;28507;-82
2023/05/21 01:37:37;;;;;;;26.40;19.77;;;13.50;99.90;;;;;;475775;248;28418;-84
2023/05/21 01:39:38;;;;;;;29.93;20.77;;;13.50;99.90;;;;;;475790;248;29294;-81
2023/05/21 01:41:39;;;;;;;28.63;20.80;;;13.50;99.90;;;;;;475786;248;29000;-85
2023/05/21 01:43:40;;;;;;;24.03;18.80;;;13.40;99.90;;;;;;475779;248;28764;-81
2023/05/21 01:45:42;;;;;;;27.67;18.40;;;13.40;99.90;;;;;;475766;248;28720;-84
2023/05/21 01:47:43;;;;;;;30.53;20.60;;;13.40;99.90;;;;;;475776;248;28421;-84
2023/05/21 01:49:44;;;;;;;26.73;19.03;;;13.40;99.90;;;;;;475771;248;28400;-83
2023/05/21 01:51:45;;;;;;;27.50;19.30;;;13.40;99.90;;;;;;475761;248;28214;-84
2023/05/21 01:53:47;;;;;;;21.80;17.03;;;13.40;99.90;;;;;;475769;248;29013;-81
2023/05/21 01:55:48;;;;;;;21.80;16.90;;;13.40;99.90;;;;;;475750;248;29298;-84
2023/05/21 01:57:49;;;;;;;27.70;19.70;;;13.30;99.90;;;;;;475837;248;28345;-79
2023/05/21 01:59:52;;;;;;;28.67;21.00;;;13.40;99.90;;;;;;475851;248;28827;-82
2023/05/21 02:01:52;;;;;;;23.13;17.93;;;13.30;99.90;;;;;;475762;248;28354;-81
2023/05/21 02:03:53;;;;;;;32.67;18.67;;;13.30;99.90;;;;;;475812;248;28562;-82
2023/05/21 02:05:54;;;;;;;27.33;20.67;;;13.30;99.90;;;;;;475787;248;28396;-81
2023/05/21 02:07:56;;;;;;;23.13;17.33;;;13.30;99.90;;;;;;475829;246;28819;-81
2023/05/21 02:09:57;;;;;;;27.83;18.93;;;13.30;99.90;;;;;;475850;248;28876;-80
2023/05/21 02:11:58;;;;;;;26.47;19.30;;;13.20;99.90;;;;;;475869;248;28426;-81
2023/05/21 02:13:59;;;;;;;28.27;19.20;;;13.20;99.90;;;;;;475871;248;28173;-81
2023/05/21 02:16:01;;;;;;;27.90;20.17;;;13.20;99.90;;;;;;475871;248;28738;-82
2023/05/21 02:18:02;;;;;;;27.90;20.43;;;13.20;99.90;;;;;;475846;248;28728;-83
2023/05/21 02:20:13;;;;;;;28.73;21.77;;;13.10;99.90;;;;;;475813;250;28375;-82
2023/05/21 02:22:14;;;;;;;29.03;21.87;;;13.10;99.90;;;;;;475852;248;28814;-82
2023/05/21 02:24:15;;;;;;;28.20;21.27;;;13.10;99.90;;;;;;475853;246;28408;-79
2023/05/21 02:26:16;;;;;;;30.50;22.03;;;13.10;99.90;;;;;;475784;250;28992;-83
2023/05/21 02:28:17;;;;;;;35.13;22.13;;;13.10;99.90;;;;;;475909;248;28800;-80
2023/05/21 02:30:19;;;;;;;29.27;20.33;;;13.10;99.90;;;;;;475763;250;28725;-81
2023/05/21 02:32:20;;;;;;;32.60;22.00;;;13.10;99.90;;;;;;475908;243;28468;-82
2023/05/21 02:34:21;;;;;;;31.20;20.57;;;13.10;99.90;;;;;;475884;248;28444;-80
2023/05/21 02:36:24;;;;;;;26.47;18.70;;;13.10;99.90;;;;;;475902;246;28442;-80
2023/05/21 02:38:24;;;;;;;29.60;21.47;;;13.00;99.90;;;;;;475869;250;28490;-82
2023/05/21 02:40:25;;;;;;;32.27;21.20;;;13.00;99.90;;;;;;475875;248;29254;-82
2023/05/21 02:42:26;;;;;;;31.60;22.40;;;13.10;99.90;;;;;;475889;246;29306;-81
2023/05/21 02:44:27;;;;;;;26.00;17.80;;;13.10;99.90;;;;;;475915;248;28313;-80
2023/05/21 02:46:29;;;;;;;24.87;18.77;;;13.10;99.90;;;;;;475903;248;28297;-81
2023/05/21 02:48:30;;;;;;;33.10;21.53;;;13.10;99.90;;;;;;475897;248;28518;-80
2023/05/21 02:50:31;;;;;;;28.80;20.93;;;13.10;99.90;;;;;;475923;248;28356;-80
2023/05/21 02:52:32;;;;;;;32.47;23.07;;;13.10;99.90;;;;;;476019;248;28235;-80
2023/05/21 02:54:34;;;;;;;26.93;19.70;;;13.10;99.90;;;;;;479868;238;28316;-83
2023/05/21 02:56:35;;;;;;;26.13;18.30;;;13.10;99.90;;;;;;497815;237;28873;-84
2023/05/21 02:58:36;;;;;;;31.83;22.30;;;13.10;99.90;;;;;;480278;246;28486;-82
2023/05/21 03:00:37;;;;;;;28.70;20.40;;;13.10;99.90;;;;;;489689;237;28435;-82
2023/05/21 03:02:39;;;;;;;29.23;21.07;;;13.10;99.90;;;;;;496718;240;29528;-82
2023/05/21 03:04:44;;;;;;;29.97;21.17;;;13.20;99.90;;;;;;487538;238;28860;-80
2023/05/21 03:06:41;;;;;;;31.27;21.60;;;13.10;99.90;;;;;;477492;248;28705;-83
2023/05/21 03:08:42;;;;;;;30.67;22.47;;;13.10;99.90;;;;;;477680;248;29299;-83
2023/05/21 03:10:44;;;;;;;27.77;20.53;;;13.10;99.90;;;;;;477666;242;29087;-80
2023/05/21 03:12:46;;;;;;;31.60;21.43;;;13.20;99.90;;;;;;477755;248;28451;-80
2023/05/21 03:14:46;;;;;;;31.50;21.80;;;13.10;99.90;;;;;;477658;249;28353;-82
2023/05/21 03:16:50;;;;;;;33.60;22.30;;;13.20;99.90;;;;;;477708;248;28715;-81
2023/05/21 03:18:49;;;;;;;26.67;19.57;;;13.20;99.90;;;;;;477614;249;28440;-82
2023/05/21 03:20:50;;;;;;;28.97;20.87;;;13.20;99.90;;;;;;477730;248;28326;-80
2023/05/21 03:22:51;;;;;;;29.80;20.70;;;13.10;99.90;;;;;;477696;248;28813;-82
2023/05/21 03:24:53;;;;;;;29.97;21.23;;;13.20;99.90;;;;;;477610;249;28980;-81
2023/05/21 03:26:54;;;;;;;30.90;19.90;;;13.10;99.90;;;;;;477681;248;28661;-82
2023/05/21 03:28:55;;;;;;;32.67;22.43;;;13.10;99.90;;;;;;477657;248;28831;-80
2023/05/21 03:30:56;;;;;;;26.03;19.77;;;13.20;99.90;;;;;;477703;248;28828;-80
2023/05/21 03:32:58;;;;;;;30.57;21.10;;;13.20;99.90;;;;;;477710;248;28432;-80
2023/05/21 03:34:59;;;;;;;31.47;21.97;;;13.20;99.90;;;;;;477655;248;28821;-80
2023/05/21 03:37:00;;;;;;;25.57;18.73;;;13.20;99.90;;;;;;477725;249;28749;-82
2023/05/21 03:39:03;;;;;;;32.50;20.90;;;13.20;99.90;;;;;;477677;248;28909;-81
2023/05/21 03:41:03;;;;;;;36.23;23.13;;;13.20;99.90;;;;;;477628;249;28553;-81
2023/05/21 03:43:04;;;;;;;28.40;20.83;;;13.20;99.90;;;;;;477701;248;28493;-85
2023/05/21 03:45:05;;;;;;;27.17;19.40;;;13.20;99.90;;;;;;477668;242;28789;-80
2023/05/21 03:47:06;;;;;;;29.60;20.50;;;13.10;99.90;;;;;;477695;248;28433;-81
2023/05/21 03:49:08;;;;;;;32.80;21.10;;;13.20;99.90;;;;;;477673;248;28737;-83
2023/05/21 03:51:09;;;;;;;34.93;20.60;;;13.20;99.90;;;;;;477716;248;28784;-83
2023/05/21 03:53:11;;;;;;;31.87;21.60;;;13.20;99.90;;;;;;477686;248;29234;-81
2023/05/21 03:55:11;;;;;;;31.90;20.30;;;13.20;99.90;;;;;;477614;248;28437;-81
2023/05/21 03:57:13;;;;;;;29.70;20.40;;;13.20;99.90;;;;;;477697;248;28729;-80
2023/05/21 03:59:14;;;;;;;25.43;18.20;;;13.20;99.90;;;;;;477712;248;28206;-80
2023/05/21 04:01:16;;;;;;;30.23;20.53;;;13.20;99.90;;;;;;477720;248;28412;-81
2023/05/21 04:03:16;;;;;;;28.40;19.80;;;13.20;99.90;;;;;;477644;249;28429;-84
2023/05/21 04:05:18;;;;;;;28.00;20.30;;;13.30;99.90;;;;;;477564;248;28420;-81
2023/05/21 04:07:19;;;;;;;24.17;17.83;;;13.30;99.90;;;;;;477327;247;28861;-80
2023/05/21 04:09:20;;;;;;;28.03;19.30;;;13.30;99.90;;;;;;477354;247;28893;-82
2023/05/21 04:11:21;;;;;;;26.43;19.20;;;13.30;99.90;;;;;;477305;248;28487;-80
2023/05/21 04:13:23;;;;;;;29.67;19.33;;;13.30;99.90;;;;;;477337;247;28608;-82
2023/05/21 04:15:24;;;;;;;24.37;17.87;;;13.30;99.90;;;;;;477343;247;28474;-81
2023/05/21 04:17:25;;;;;;;28.67;20.20;;;13.30;99.90;;;;;;477363;247;28325;-81
2023/05/21 04:19:27;;;;;;;24.00;18.67;;;13.40;99.90;;;;;;477374;247;28488;-81
2023/05/21 04:21:28;;;;;;;23.07;17.63;;;13.30;99.90;;;;;;477330;247;29180;-80
2023/05/21 04:23:29;;;;;;;29.13;20.00;;;13.40;99.90;;;;;;477326;247;29151;-82
2023/05/21 04:25:30;;;;;;;28.97;19.00;;;13.40;99.90;;;;;;477273;247;28584;-80
2023/05/21 04:27:33;;;;;;;26.90;19.70;;;13.40;99.90;;;;;;477301;247;28444;-81
2023/05/21 04:29:33;;;;;;;29.30;19.53;;;13.40;99.90;;;;;;477273;248;28305;-83
2023/05/21 04:31:34;;;;;;;24.60;18.43;;;13.30;99.90;;;;;;477323;247;28542;-82
2023/05/21 04:33:35;;;;;;;30.20;19.30;;;13.40;99.90;;;;;;477233;247;28627;-81
2023/05/21 04:35:43;;;;;;;27.43;19.13;;;13.40;99.90;;;;;;477195;248;29051;-81
2023/05/21 04:37:40;;;;;;;25.80;18.70;;;13.40;99.90;;;;;;476906;249;29036;-81
2023/05/21 04:39:41;;;;;;;26.27;19.37;;;13.50;99.90;;;;;;477048;249;29132;-81
2023/05/21 04:41:40;;;;;;;27.50;17.03;;;13.50;99.90;;;;;;477148;247;28489;-80
2023/05/21 04:43:42;;;;;;;26.33;18.13;;;13.50;99.90;;;;;;477185;247;28482;-82
2023/05/21 04:45:43;;;;;;;30.80;19.47;;;13.50;99.90;;;;;;477110;249;28855;-84
2023/05/21 04:47:44;;;;;;;23.07;17.93;;;13.50;99.90;;;;;;477168;248;28515;-81
2023/05/21 04:49:49;;;;;;;28.57;19.17;;;13.60;99.90;;;;;;477015;247;29369;-84
2023/05/21 04:51:49;;;;;;;24.70;18.67;;;13.60;99.90;;;;;;477053;249;29320;-81
2023/05/21 04:53:52;;;;;;;21.03;16.20;;;13.70;99.90;;;;;;476990;247;28428;-82
2023/05/21 04:55:52;;;;;;;21.30;16.20;;;13.70;99.90;;;;;;476793;249;28824;-84
2023/05/21 04:57:53;;;;;;;23.93;16.70;;;13.80;99.90;;;;;;476926;247;28459;-82
2023/05/21 04:59:56;;;;;;;28.97;18.50;;;13.90;99.90;;;;;;476796;247;28545;-83
2023/05/21 05:01:56;;;;;;;22.77;16.73;;;13.90;99.90;;;;;;476637;249;28869;-83
2023/05/21 05:03:57;;;;;;;27.33;17.97;;;13.90;99.90;;;;;;476765;247;29357;-84
2023/05/21 05:05:58;;;;;;;22.07;16.60;;;13.80;99.90;;;;;;478213;247;29195;-85
2023/05/21 05:07:59;;;;;;;20.27;16.10;;;14.00;99.90;;;;;;482364;246;28844;-83
2023/05/21 05:10:01;;;;;;;20.50;15.83;;;14.10;99.90;;;;;;482228;246;28863;-82
2023/05/21 05:12:02;;;;;;;20.17;15.90;;;14.20;99.90;;;;;;482191;246;28854;-84
2023/05/21 05:14:03;;;;;;;23.67;15.77;;;14.20;99.90;;;;;;482178;246;28944;-84
2023/05/21 05:16:04;;;;;;;19.40;14.50;;;14.40;99.90;;;;;;482087;246;28862;-84
2023/05/21 05:18:07;;;;;;;19.23;15.37;;;14.50;99.90;;;;;;482037;246;29299;-83
2023/05/21 05:20:07;;;;;;;27.50;17.90;;;14.60;99.90;;;;;;481955;246;29355;-82
2023/05/21 05:22:08;;;;;;;22.40;17.33;;;14.50;99.90;;;;;;481988;246;28841;-84
2023/05/21 05:24:10;;;;;;;27.30;18.90;;;14.40;99.90;;;;;;482005;246;28866;-83
2023/05/21 05:26:11;;;;;;;20.00;15.43;;;14.30;99.90;;;;;;482017;246;28899;-84
2023/05/21 05:28:12;;;;;;;20.90;16.50;;;14.50;99.90;;;;;;482000;246;28850;-84
2023/05/21 05:30:13;;;;;;;20.43;16.20;;;14.60;99.90;;;;;;482009;246;28878;-82
2023/05/21 05:32:15;;;;;;;21.00;15.73;;;14.60;99.90;;;;;;482009;246;29317;-83
2023/05/21 05:34:16;;;;;;;21.03;15.57;;;14.60;99.90;;;;;;482023;246;29339;-82
2023/05/21 05:36:17;;;;;;;19.40;14.90;;;14.70;99.90;;;;;;482000;246;28887;-83
2023/05/21 05:38:19;;;;;;;21.33;16.07;;;14.70;99.90;;;;;;481996;246;28850;-84
2023/05/21 05:40:20;;;;;;;26.83;16.93;;;14.80;99.90;;;;;;481981;246;28968;-81
2023/05/21 05:42:21;;;;;;;19.60;15.10;;;14.90;99.90;;;;;;482013;246;28849;-84
2023/05/21 05:44:22;;;;;;;21.13;15.60;;;14.90;99.90;;;;;;482002;246;28870;-83
2023/05/21 05:46:23;;;;;;;23.93;17.50;;;14.90;99.90;;;;;;482053;246;29390;-83
2023/05/21 05:48:25;;;;;;;24.10;16.40;;;14.90;99.90;;;;;;482016;246;29307;-84
2023/05/21 05:50:26;;;;;;;22.63;18.10;;;15.10;99.90;;;;;;482005;246;28868;-82
2023/05/21 05:52:27;;;;;;;23.27;17.53;;;15.00;99.90;;;;;;482031;246;28973;-84
2023/05/21 05:54:28;;;;;;;23.07;16.60;;;15.00;99.90;;;;;;481969;246;28854;-83
2023/05/21 05:56:30;;;;;;;24.73;17.27;;;15.10;99.90;;;;;;482005;246;28864;-82
2023/05/21 05:58:31;;;;;;;24.50;16.97;;;15.20;99.90;;;;;;481980;246;28954;-83
2023/05/21 06:00:32;;;;;;;20.60;16.80;;;15.10;99.90;;;;;;481971;246;28866;-83
2023/05/21 06:02:33;;;;;;;22.77;17.10;;;15.10;99.90;;;;;;481965;246;29307;-84
2023/05/21 06:04:35;;;;;;;20.17;15.57;;;15.10;99.90;;;;;;481922;246;28882;-83
2023/05/21 06:06:36;;;;;;;21.07;16.00;;;15.20;99.90;;;;;;481967;246;28869;-82
2023/05/21 06:08:39;;;;;;;22.27;15.73;;;15.40;99.90;;;;;;481962;246;28869;-83
2023/05/21 06:10:38;;;;;;;23.87;17.60;;;15.40;99.90;;;;;;481852;246;28866;-83
2023/05/21 06:12:40;;;;;;;23.13;16.63;;;15.40;99.90;;;;;;481994;246;28856;-85
2023/05/21 06:14:41;;;;;;;20.57;16.10;;;15.40;99.90;;;;;;481962;246;29351;-83
2023/05/21 06:16:42;;;;;;;19.80;14.73;;;15.20;99.90;;;;;;481991;246;29308;-81
2023/05/21 06:18:43;;;;;;;17.50;14.10;;;15.40;99.90;;;;;;481960;246;28878;-83
2023/05/21 06:20:45;;;;;;;21.13;15.90;;;15.60;99.90;;;;;;481914;246;28869;-82
2023/05/21 06:22:46;;;;;;;20.83;15.20;;;15.50;99.90;;;;;;481967;246;28854;-84
2023/05/21 06:24:47;;;;;;;21.00;14.90;;;15.60;99.90;;;;;;481907;246;28870;-83
2023/05/21 06:26:49;;;;;;;29.23;16.27;;;15.70;99.90;;;;;;481952;246;28940;-81
2023/05/21 06:28:50;;;;;;;23.03;16.87;;;15.60;99.90;;;;;;481942;246;28941;-83
2023/05/21 06:30:51;;;;;;;19.50;15.03;;;15.50;99.90;;;;;;481919;246;29317;-83
2023/05/21 06:32:52;;;;;;;21.10;14.67;;;15.40;99.90;;;;;;481925;246;29324;-83
2023/05/21 06:34:54;;;;;;;21.83;15.70;;;15.60;99.90;;;;;;481911;246;28838;-83
2023/05/21 06:36:55;;;;;;;17.50;14.53;;;15.60;99.90;;;;;;481966;246;28856;-82
2023/05/21 06:38:56;;;;;;;21.13;14.47;;;15.60;99.90;;;;;;481951;246;28877;-84
2023/05/21 06:40:57;;;;;;;24.63;16.83;;;15.80;99.90;;;;;;481962;246;28873;-84
2023/05/21 06:42:59;;;;;;;20.43;14.80;;;15.80;99.90;;;;;;481980;246;28862;-84
2023/05/21 06:45:00;;;;;;;23.47;16.90;;;15.70;99.90;;;;;;481907;246;29309;-84
2023/05/21 06:47:01;;;;;;;19.33;15.90;;;15.70;99.90;;;;;;481990;246;29414;-82
2023/05/21 06:49:05;;;;;;;19.97;15.23;;;15.60;99.90;;;;;;481967;246;28840;-83
2023/05/21 06:51:04;;;;;;;21.00;16.33;;;15.70;99.90;;;;;;481812;247;28850;-83
2023/05/21 06:53:05;;;;;;;22.27;15.43;;;15.80;99.90;;;;;;481978;246;28890;-83
2023/05/21 06:55:06;;;;;;;21.47;15.80;;;15.80;99.90;;;;;;481967;246;28941;-84
2023/05/21 06:57:07;;;;;;;19.03;15.27;;;15.70;99.90;;;;;;481970;246;28871;-82
2023/05/21 06:59:09;;;;;;;17.93;15.30;;;15.80;99.90;;;;;;481942;246;29381;-84
2023/05/21 07:01:13;;;;;;;22.20;15.83;;;15.90;99.90;;;;;;481958;246;29334;-82
2023/05/21 07:03:11;;;;;;;18.23;14.93;;;16.00;99.90;;;;;;481597;247;28858;-81
2023/05/21 07:05:12;;;;;;;19.93;15.80;;;16.20;99.90;;;;;;481971;246;28845;-84
2023/05/21 07:07:14;;;;;;;19.30;14.80;;;16.00;99.90;;;;;;481946;246;28855;-80
2023/05/21 07:09:17;;;;;;;16.73;13.93;;;16.30;99.90;;;;;;481931;246;28883;-83
2023/05/21 07:11:16;;;;;;;19.40;13.30;;;16.40;99.90;;;;;;481848;247;28852;-83
2023/05/21 07:13:17;;;;;;;17.80;13.43;;;16.60;99.90;;;;;;481982;246;29351;-81
2023/05/21 07:15:19;;;;;;;16.43;13.40;;;16.70;99.90;;;;;;481915;246;29313;-83
2023/05/21 07:17:20;;;;;;;18.00;14.13;;;16.60;99.90;;;;;;481893;246;28862;-83
2023/05/21 07:19:21;;;;;;;22.50;14.77;;;16.60;99.90;;;;;;481958;246;28854;-84
2023/05/21 07:21:22;;;;;;;20.47;14.50;;;16.60;99.90;;;;;;481906;246;28856;-85
2023/05/21 07:23:24;;;;;;;19.10;15.30;;;16.70;99.90;;;;;;481952;246;28862;-81
2023/05/21 07:25:25;;;;;;;19.03;14.40;;;16.70;99.90;;;;;;481904;246;28866;-83
2023/05/21 07:27:26;;;;;;;20.90;15.10;;;16.80;99.90;;;;;;481937;246;29448;-82
2023/05/21 07:29:28;;;;;;;20.13;15.20;;;16.70;99.90;;;;;;481972;246;29310;-84
2023/05/21 07:31:29;;;;;;;16.10;13.80;;;16.70;99.90;;;;;;481948;246;28927;-83
2023/05/21 07:33:30;;;;;;;23.47;14.73;;;16.80;99.90;;;;;;481925;246;28853;-82
2023/05/21 07:35:31;;;;;;;17.43;14.80;;;17.00;99.90;;;;;;481913;246;28859;-83
2023/05/21 07:37:33;;;;;;;16.97;13.30;;;16.80;99.90;;;;;;481949;247;28848;-82
2023/05/21 07:39:34;;;;;;;17.50;14.00;;;16.90;99.90;;;;;;481968;246;28851;-84
2023/05/21 07:41:35;;;;;;;18.97;14.70;;;17.10;99.90;;;;;;481933;246;29323;-84
2023/05/21 07:43:36;;;;;;;17.87;14.60;;;17.20;99.90;;;;;;481970;246;29321;-82
2023/05/21 07:45:38;;;;;;;16.80;13.80;;;17.10;99.90;;;;;;481889;246;28942;-83
2023/05/21 07:47:39;;;;;;;18.90;14.70;;;17.20;99.90;;;;;;481952;246;28876;-83
2023/05/21 07:49:40;;;;;;;17.40;13.93;;;17.40;99.90;;;;;;481935;246;28844;-82
2023/05/21 07:51:41;;;;;;;18.07;14.33;;;17.50;99.90;;;;;;481936;243;28854;-83
2023/05/21 07:53:43;;;;;;;17.40;13.23;;;17.30;99.90;;;;;;481941;246;28920;-83
2023/05/21 07:55:46;;;;;;;15.87;13.20;;;17.40;99.90;;;;;;481905;246;29318;-84
2023/05/21 07:57:45;;;;;;;18.30;13.77;;;17.50;99.90;;;;;;481803;247;29360;-83
2023/05/21 07:59:46;;;;;;;18.47;12.93;;;17.30;99.90;;;;;;481941;246;29285;-82
2023/05/21 08:01:48;;;;;;;18.20;13.73;;;17.50;99.90;;;;;;481929;246;28919;-82
2023/05/21 08:03:49;;;;;;;20.67;13.50;;;17.60;99.90;;;;;;481934;246;28856;-81
2023/05/21 08:05:50;;;;;;;18.07;13.67;;;17.40;99.90;;;;;;481925;246;28912;-82
2023/05/21 08:07:51;;;;;;;19.87;14.10;;;17.30;99.90;;;;;;481957;246;28957;-83
2023/05/21 08:09:53;;;;;;;18.47;13.40;;;17.30;99.90;;;;;;481980;246;29544;-83
2023/05/21 08:11:54;;;;;;;19.57;13.70;;;17.30;99.90;;;;;;481944;246;29308;-82
2023/05/21 08:13:55;;;;;;;16.53;14.20;;;17.60;99.90;;;;;;481971;246;28897;-82
2023/05/21 08:15:56;;;;;;;15.10;12.23;;;17.60;99.90;;;;;;481891;246;28858;-82
2023/05/21 08:17:58;;;;;;;15.80;12.03;;;17.70;99.90;;;;;;481898;246;28854;-82
2023/05/21 08:19:59;;;;;;;16.13;13.20;;;17.80;99.90;;;;;;481899;246;28866;-81
2023/05/21 08:22:00;;;;;;;17.20;13.20;;;17.90;99.90;;;;;;481955;246;28958;-83
2023/05/21 08:24:01;;;;;;;15.87;13.00;;;18.00;99.90;;;;;;481936;246;28876;-82
2023/05/21 08:26:03;;;;;;;20.77;13.90;;;17.80;99.90;;;;;;481918;246;29351;-84
2023/05/21 08:28:04;;;;;;;15.90;13.10;;;17.60;99.90;;;;;;481910;247;28944;-82
2023/05/21 08:30:05;;;;;;;14.80;13.17;;;17.80;99.90;;;;;;481924;246;28873;-80
2023/05/21 08:32:08;;;;;;;18.03;12.97;;;17.80;99.90;;;;;;481894;246;28934;-82
2023/05/21 08:34:08;;;;;;;16.07;13.27;;;18.00;99.90;;;;;;481826;247;28868;-83
2023/05/21 08:36:09;;;;;;;15.80;13.30;;;18.10;99.90;;;;;;481899;246;28857;-83
2023/05/21 08:38:10;;;;;;;18.30;13.17;;;18.10;99.90;;;;;;481938;246;29268;-82
2023/05/21 08:40:12;;;;;;;14.17;12.03;;;18.10;99.90;;;;;;481930;246;29319;-81
2023/05/21 08:42:13;;;;;;;14.40;12.77;;;18.30;99.90;;;;;;481961;246;28956;-83
2023/05/21 08:44:14;;;;;;;14.60;12.10;;;18.20;99.90;;;;;;481936;246;28842;-82
2023/05/21 08:46:15;;;;;;;15.60;13.03;;;18.30;99.90;;;;;;481919;246;28970;-83
2023/05/21 08:48:17;;;;;;;16.03;12.23;;;18.30;99.90;;;;;;481966;246;28935;-82
2023/05/21 08:50:18;;;;;;;17.10;13.43;;;18.40;99.90;;;;;;481954;246;28878;-81
2023/05/21 08:52:20;;;;;;;16.70;13.60;;;18.30;99.90;;;;;;481968;246;28856;-82
2023/05/21 08:54:21;;;;;;;15.27;13.13;;;18.10;99.90;;;;;;481894;246;29301;-82
2023/05/21 08:56:22;;;;;;;17.50;13.43;;;18.20;99.90;;;;;;481947;246;28873;-84
2023/05/21 08:58:23;;;;;;;16.87;13.50;;;18.20;99.90;;;;;;481933;246;28873;-83
2023/05/21 09:00:24;;;;;;;13.87;11.70;;;18.10;99.90;;;;;;481953;246;28975;-82
2023/05/21 09:02:25;;;;;;;14.63;13.13;;;18.40;99.90;;;;;;481972;246;28865;-83
2023/05/21 09:04:27;;;;;;;16.73;13.27;;;18.50;99.90;;;;;;481933;246;28888;-81
2023/05/21 09:06:28;;;;;;;17.77;13.20;;;18.30;99.90;;;;;;481983;246;28855;-82
2023/05/21 09:08:29;;;;;;;16.03;12.73;;;18.30;99.90;;;;;;481954;246;29359;-82
2023/05/21 09:10:30;;;;;;;19.40;12.43;;;18.30;99.90;;;;;;481950;246;29307;-82
2023/05/21 09:12:32;;;;;;;15.10;13.33;;;18.50;99.90;;;;;;481937;246;28943;-82
2023/05/21 09:14:33;;;;;;;14.97;12.40;;;18.40;99.90;;;;;;481899;246;28860;-82
2023/05/21 09:16:34;;;;;;;13.73;12.13;;;18.60;99.90;;;;;;481935;246;28867;-82
2023/05/21 09:18:35;;;;;;;19.33;12.10;;;18.80;99.90;;;;;;481921;247;28883;-83
2023/05/21 09:20:37;;;;;;;15.77;12.57;;;18.80;99.90;;;;;;481928;246;28951;-81
2023/05/21 09:22:38;;;;;;;15.90;12.47;;;18.80;99.90;;;;;;481894;246;29281;-82
2023/05/21 09:24:40;;;;;;;15.07;13.17;;;18.90;99.90;;;;;;481903;246;29403;-83
2023/05/21 09:26:41;;;;;;;13.87;11.70;;;19.00;99.90;;;;;;481918;247;28867;-84
2023/05/21 09:28:42;;;;;;;13.73;12.17;;;19.00;99.90;;;;;;481940;246;28935;-83
2023/05/21 09:30:43;;;;;;;13.53;12.10;;;18.90;99.90;;;;;;481924;246;28854;-82
2023/05/21 09:32:44;;;;;;;14.20;12.10;;;19.00;99.90;;;;;;481928;247;28911;-85
2023/05/21 09:34:46;;;;;;;20.30;14.10;;;19.20;99.90;;;;;;481915;246;28862;-84
2023/05/21 09:36:47;;;;;;;18.33;14.03;;;18.70;99.90;;;;;;481964;246;29406;-82
2023/05/21 09:38:48;;;;;;;18.80;13.60;;;18.40;99.90;;;;;;482022;246;29423;-84
2023/05/21 09:40:49;;;;;;;14.30;12.10;;;18.60;99.90;;;;;;482004;246;28948;-81
2023/05/21 09:42:51;;;;;;;16.30;13.90;;;18.80;99.90;;;;;;481944;246;28844;-83
2023/05/21 09:44:52;;;;;;;14.43;12.67;;;19.00;99.90;;;;;;481910;246;28853;-82
2023/05/21 09:46:56;;;;;;;17.60;12.93;;;19.20;99.90;;;;;;481962;246;28965;-83
2023/05/21 09:48:54;;;;;;;12.63;11.33;;;19.40;99.90;;;;;;481795;247;28926;-83
2023/05/21 09:50:56;;;;;;;15.77;12.20;;;19.40;99.90;;;;;;481981;246;29391;-81
2023/05/21 09:52:57;;;;;;;15.13;11.93;;;19.60;99.90;;;;;;481929;246;29304;-83
2023/05/21 09:54:58;;;;;;;14.10;11.60;;;19.60;99.90;;;;;;481921;246;28848;-84
2023/05/21 09:57:01;;;;;;;14.43;12.47;;;19.80;99.90;;;;;;481962;246;28988;-80
2023/05/21 09:59:02;;;;;;;15.43;12.10;;;19.70;99.90;;;;;;481900;246;29043;-82
2023/05/21 10:01:02;;;;;;;16.73;12.00;;;19.80;99.90;;;;;;481846;247;28861;-82
2023/05/21 10:03:03;;;;;;;14.13;12.53;;;19.90;99.90;;;;;;481958;246;28967;-84
2023/05/21 10:05:04;;;;;;;17.50;13.60;;;20.00;99.90;;;;;;481914;246;29400;-82
2023/05/21 10:07:06;;;;;;;15.10;13.20;;;19.90;99.90;;;;;;481955;246;29435;-82
2023/05/21 10:09:07;;;;;;;15.20;12.23;;;19.40;99.90;;;;;;481963;246;28853;-82
2023/05/21 10:11:08;;;;;;;14.37;12.87;;;19.50;99.90;;;;;;481945;246;28863;-82
2023/05/21 10:13:10;;;;;;;13.87;11.70;;;19.40;99.90;;;;;;481936;246;28963;-84
2023/05/21 10:15:11;;;;;;;18.90;12.93;;;19.50;99.90;;;;;;481896;247;28959;-83